TimeCST,TemperatureF,Dew PointF,Humidity,Sea Level PressureIn,VisibilityMPH,Wind Direction,Wind SpeedMPH,Gust SpeedMPH,PrecipitationIn,Events,Conditions,WindDirDegrees,DateUTC
12:53 AM,3.9,-2.0,76,30.19,10.0,South,4.6,-,N/A,,Clear,170,2013-01-02 06:53:00
1:53 AM,5.0,-0.9,76,30.16,10.0,South,8.1,-,N/A,,Clear,180,2013-01-02 07:53:00
2:53 AM,7.0,1.0,77,30.16,10.0,South,6.9,-,N/A,,Clear,190,2013-01-02 08:53:00
3:53 AM,8.1,1.9,76,30.13,10.0,SSW,4.6,-,N/A,,Clear,200,2013-01-02 09:53:00
4:53 AM,1.9,-2.0,83,30.12,10.0,Calm,Calm,-,N/A,,Clear,0,2013-01-02 10:53:00
6:53 AM,3.9,1.0,88,30.12,10.0,SSE,4.6,-,N/A,,Clear,160,2013-01-02 12:53:00
7:53 AM,6.1,1.9,83,30.11,10.0,SSE,4.6,-,N/A,,Clear,160,2013-01-02 13:53:00
9:53 AM,12.9,9.0,84,30.10,10.0,SSW,6.9,-,N/A,,Clear,210,2013-01-02 15:53:00
10:53 AM,16.0,10.9,81,30.09,9.0,SW,12.7,-,N/A,,Clear,220,2013-01-02 16:53:00
11:53 AM,18.0,12.9,81,30.08,9.0,WSW,11.5,-,N/A,,Partly Cloudy,240,2013-01-02 17:53:00
12:53 PM,19.0,12.9,77,30.07,9.0,SW,12.7,-,N/A,,Clear,230,2013-01-02 18:53:00
1:53 PM,21.0,15.1,78,30.06,9.0,WSW,13.8,-,N/A,,Overcast,240,2013-01-02 19:53:00
2:53 PM,21.0,15.1,78,30.07,9.0,WSW,12.7,-,N/A,,Overcast,250,2013-01-02 20:53:00
3:07 PM,21.2,15.8,80,30.01,8.0,WSW,12.7,-,N/A,,Overcast,250,2013-01-02 21:07:00
3:28 PM,21.2,15.8,80,30.01,7.0,WSW,10.4,-,N/A,,Overcast,250,2013-01-02 21:28:00
3:53 PM,21.9,17.1,82,30.08,6.0,WSW,9.2,-,0.00,,Haze,250,2013-01-02 21:53:00
4:00 PM,21.2,17.6,86,30.03,6.0,West,9.2,-,0.00,Snow,Light Snow,260,2013-01-02 22:00:00
4:53 PM,23.0,18.0,81,30.09,8.0,West,9.2,-,0.00,,Overcast,260,2013-01-02 22:53:00
5:13 PM,23.0,19.4,86,30.04,9.0,West,9.2,-,N/A,,Overcast,260,2013-01-02 23:13:00
5:30 PM,23.0,19.4,86,30.04,6.0,WSW,8.1,-,0.00,Snow,Light Snow,240,2013-01-02 23:30:00
5:53 PM,23.0,19.0,85,30.11,8.0,WSW,9.2,-,0.00,,Overcast,240,2013-01-02 23:53:00
6:53 PM,24.1,21.0,88,30.12,4.0,WSW,10.4,-,0.00,Snow,Light Snow,240,2013-01-03 00:53:00
7:53 PM,25.0,23.0,92,30.12,4.0,WSW,9.2,-,0.00,Snow,Light Snow,240,2013-01-03 01:53:00
7:59 PM,24.8,23.0,93,30.06,6.0,WSW,9.2,-,0.00,,Overcast,240,2013-01-03 01:59:00
8:53 PM,26.1,24.1,92,30.12,8.0,West,9.2,-,0.00,,Overcast,260,2013-01-03 02:53:00
9:24 PM,26.6,24.8,93,30.07,8.0,West,9.2,-,N/A,,Overcast,260,2013-01-03 03:24:00
9:53 PM,27.0,25.0,92,30.13,8.0,WSW,9.2,-,N/A,,Overcast,250,2013-01-03 03:53:00
10:53 PM,28.9,25.0,85,30.14,10.0,WNW,11.5,-,N/A,,Overcast,290,2013-01-03 04:53:00
11:53 PM,27.0,21.9,81,30.17,10.0,WNW,11.5,-,N/A,,Overcast,300,2013-01-03 05:53:00